Time;durP1;ratioP1;P1;durP2;ratioP2;P2;SDS_P1;SDS_P2;PMS_P1;PMS_P2;Temp;Humidity;BMP_temperature;BMP_pressure;BME280_temperature;BME280_humidity;BME280_pressure;Samples;Min_cycle;Max_cycle;Signal;HPM_P1;HPM_P2
2022/03/26 00:00:27;;;;;;;63.88;37.00;;;7.30;92.60;;;;;;5069469;27;36657;-51
2022/03/26 00:02:56;;;;;;;53.83;34.08;;;7.30;92.80;;;;;;5070509;27;36303;-52
2022/03/26 00:05:23;;;;;;;74.93;42.33;;;7.20;92.80;;;;;;5068873;28;39024;-52
2022/03/26 00:07:51;;;;;;;81.05;45.50;;;7.20;92.50;;;;;;5069857;28;36041;-50
2022/03/26 00:10:18;;;;;;;87.10;49.17;;;7.10;92.60;;;;;;5069583;28;37703;-52
2022/03/26 00:12:46;;;;;;;84.60;50.30;;;7.10;92.70;;;;;;5068580;27;37389;-52
2022/03/26 00:15:13;;;;;;;88.80;51.78;;;7.00;92.90;;;;;;5071105;27;37142;-53
2022/03/26 00:17:41;;;;;;;87.07;51.45;;;7.00;93.00;;;;;;5070410;27;38569;-51
2022/03/26 00:20:11;;;;;;;88.65;50.13;;;7.00;93.20;;;;;;5070503;28;36690;-53
2022/03/26 00:22:39;;;;;;;96.82;54.72;;;7.00;93.40;;;;;;5070602;28;36975;-52
2022/03/26 00:25:15;;;;;;;100.90;56.70;;;7.00;93.40;;;;;;5070215;28;37477;-52
2022/03/26 00:27:48;;;;;;;109.65;58.53;;;7.00;93.60;;;;;;5069037;28;37375;-52
2022/03/26 00:30:29;;;;;;;110.40;60.88;;;7.00;93.90;;;;;;5068731;28;37057;-52
2022/03/26 00:33:01;;;;;;;121.05;67.15;;;7.00;93.70;;;;;;5069800;27;37609;-52
2022/03/26 00:35:30;;;;;;;134.50;75.70;;;7.10;93.90;;;;;;5070279;28;38080;-53
2022/03/26 00:37:57;;;;;;;147.63;82.15;;;7.10;94.10;;;;;;5069519;27;37905;-52
2022/03/26 00:40:25;;;;;;;101.60;55.53;;;7.10;94.20;;;;;;5069741;27;36237;-50
2022/03/26 00:42:52;;;;;;;90.32;52.13;;;7.10;94.00;;;;;;5069055;27;37454;-52
2022/03/26 00:45:20;;;;;;;106.18;59.53;;;7.00;94.00;;;;;;5069165;27;37621;-52
2022/03/26 00:47:47;;;;;;;125.80;68.88;;;7.20;94.20;;;;;;5069237;28;37631;-53
2022/03/26 00:50:14;;;;;;;108.50;61.70;;;7.10;94.20;;;;;;5069149;27;36569;-52
2022/03/26 00:52:43;;;;;;;130.73;71.60;;;7.10;94.30;;;;;;5069455;27;38215;-52
2022/03/26 00:55:11;;;;;;;141.30;75.70;;;7.00;94.20;;;;;;5069766;27;38361;-49
2022/03/26 00:57:38;;;;;;;144.32;78.18;;;7.00;94.10;;;;;;5069840;28;36851;-50
2022/03/26 01:00:07;;;;;;;141.50;76.65;;;7.00;94.20;;;;;;5070132;27;37324;-52
2022/03/26 01:02:35;;;;;;;150.07;81.45;;;7.00;94.30;;;;;;5070102;28;37600;-50
2022/03/26 01:05:04;;;;;;;142.07;76.68;;;6.90;94.30;;;;;;5069013;27;37640;-50
2022/03/26 01:07:31;;;;;;;125.15;70.93;;;6.90;94.30;;;;;;5069901;27;38943;-50
2022/03/26 01:10:00;;;;;;;129.32;70.25;;;6.90;94.60;;;;;;5070174;28;36856;-51
2022/03/26 01:12:27;;;;;;;108.68;60.25;;;6.90;94.70;;;;;;5069526;28;37748;-52
2022/03/26 01:14:55;;;;;;;106.68;58.80;;;6.90;94.90;;;;;;5068984;28;36352;-50
2022/03/26 01:17:23;;;;;;;101.70;56.50;;;6.90;95.10;;;;;;5070038;28;39972;-51
2022/03/26 01:19:51;;;;;;;100.90;56.38;;;6.80;95.20;;;;;;5069021;27;37146;-53
2022/03/26 01:22:18;;;;;;;112.13;61.97;;;6.80;95.20;;;;;;5067997;27;38875;-50
2022/03/26 01:24:45;;;;;;;122.00;68.03;;;6.80;95.00;;;;;;5068129;28;37628;-51
2022/03/26 01:27:14;;;;;;;132.50;72.85;;;6.80;95.00;;;;;;5069144;27;37362;-51
2022/03/26 01:29:41;;;;;;;140.20;75.85;;;6.70;94.90;;;;;;5068214;27;37815;-49
2022/03/26 01:32:10;;;;;;;137.23;76.70;;;6.60;94.90;;;;;;5067458;27;36119;-51
2022/03/26 01:34:38;;;;;;;132.57;73.45;;;6.60;95.00;;;;;;5067131;28;38338;-51
2022/03/26 01:37:06;;;;;;;135.68;73.93;;;6.60;94.90;;;;;;5067799;27;36253;-52
2022/03/26 01:39:33;;;;;;;133.57;75.13;;;6.50;95.00;;;;;;5069445;27;37123;-50
2022/03/26 01:42:02;;;;;;;135.10;73.97;;;6.50;95.10;;;;;;5069451;28;37433;-49
2022/03/26 01:44:31;;;;;;;130.25;74.80;;;6.40;95.20;;;;;;5069094;27;38385;-52
2022/03/26 01:47:00;;;;;;;133.77;73.05;;;6.40;95.40;;;;;;5069402;27;38324;-51
2022/03/26 01:49:28;;;;;;;135.18;71.00;;;6.40;95.50;;;;;;5069722;28;36335;-51
2022/03/26 01:51:56;;;;;;;124.07;68.85;;;6.40;95.50;;;;;;5068281;27;38254;-52
2022/03/26 01:54:24;;;;;;;122.60;67.82;;;6.50;95.50;;;;;;5068366;27;37744;-52
2022/03/26 01:56:52;;;;;;;129.68;69.40;;;6.40;95.60;;;;;;5068576;28;38393;-51
2022/03/26 01:59:19;;;;;;;118.95;67.32;;;6.50;95.60;;;;;;5068048;27;35522;-51
2022/03/26 02:01:48;;;;;;;127.60;70.72;;;6.50;95.70;;;;;;5069190;27;37618;-52
2022/03/26 02:04:15;;;;;;;117.57;64.32;;;6.50;95.70;;;;;;5067400;28;37427;-51
2022/03/26 02:06:42;;;;;;;115.15;65.75;;;6.50;95.70;;;;;;5067644;27;37737;-53
2022/03/26 02:09:13;;;;;;;117.45;64.97;;;6.50;95.70;;;;;;5068497;27;35422;-50
2022/03/26 02:11:42;;;;;;;116.97;65.00;;;6.50;95.70;;;;;;5068878;28;37284;-51
2022/03/26 02:14:10;;;;;;;113.00;63.83;;;6.50;95.60;;;;;;5069790;28;36439;-51
2022/03/26 02:16:40;;;;;;;121.85;67.78;;;6.40;95.70;;;;;;5066176;28;39710;-51
2022/03/26 02:19:09;;;;;;;118.95;66.00;;;6.40;95.70;;;;;;5068276;28;36811;-51
2022/03/26 02:21:39;;;;;;;128.45;69.35;;;6.40;95.90;;;;;;5068116;27;38255;-52
2022/03/26 02:24:08;;;;;;;114.28;64.75;;;6.40;96.00;;;;;;5068503;27;37896;-49
2022/03/26 02:26:39;;;;;;;125.68;64.10;;;6.50;95.90;;;;;;5067931;28;37630;-49
2022/03/26 02:29:08;;;;;;;122.50;66.55;;;6.50;95.90;;;;;;5068135;27;38167;-51
2022/03/26 02:31:35;;;;;;;123.97;68.35;;;6.50;96.00;;;;;;5067902;28;38144;-50
2022/03/26 02:34:04;;;;;;;115.72;62.88;;;6.50;96.10;;;;;;5067820;27;37531;-48
2022/03/26 02:36:31;;;;;;;119.45;65.45;;;6.50;96.00;;;;;;5068216;27;39419;-49
2022/03/26 02:39:02;;;;;;;111.57;61.92;;;6.50;96.10;;;;;;5068045;27;35617;-52
2022/03/26 02:41:34;;;;;;;106.78;60.00;;;6.40;96.10;;;;;;5068265;27;37136;-51
2022/03/26 02:44:01;;;;;;;105.78;60.10;;;6.40;96.10;;;;;;5067916;27;37940;-53
2022/03/26 02:46:31;;;;;;;103.10;57.42;;;6.40;96.10;;;;;;5068409;28;37992;-52
2022/03/26 02:48:58;;;;;;;106.22;59.33;;;6.40;96.10;;;;;;5068825;27;37738;-48
2022/03/26 02:51:26;;;;;;;104.22;57.85;;;6.30;96.00;;;;;;5067974;28;36261;-51
2022/03/26 02:53:53;;;;;;;102.85;58.25;;;6.30;95.90;;;;;;5068266;28;36490;-51
2022/03/26 02:56:22;;;;;;;106.53;58.28;;;6.30;95.80;;;;;;5066896;28;38530;-48
2022/03/26 02:58:50;;;;;;;100.93;56.60;;;6.30;95.80;;;;;;5066195;27;37519;-51
2022/03/26 03:01:19;;;;;;;96.22;54.28;;;6.30;95.90;;;;;;5067472;28;37782;-52
2022/03/26 03:03:46;;;;;;;102.03;57.25;;;6.30;95.90;;;;;;5067186;28;38089;-51
2022/03/26 03:06:13;;;;;;;101.07;54.97;;;6.20;95.80;;;;;;5067811;27;36150;-51
2022/03/26 03:08:40;;;;;;;99.70;56.22;;;6.20;95.70;;;;;;5067858;27;36472;-50
2022/03/26 03:11:08;;;;;;;111.03;61.72;;;6.30;95.70;;;;;;5068547;27;36171;-51
2022/03/26 03:13:38;;;;;;;122.47;62.45;;;6.20;95.80;;;;;;5067405;27;37266;-51
2022/03/26 03:16:06;;;;;;;106.90;58.28;;;6.20;95.90;;;;;;5066385;28;38246;-51
2022/03/26 03:18:33;;;;;;;106.70;60.45;;;6.10;96.00;;;;;;5069678;28;35460;-51
2022/03/26 03:21:00;;;;;;;119.32;63.85;;;6.20;96.10;;;;;;5071301;27;37431;-50
2022/03/26 03:23:28;;;;;;;116.05;65.20;;;6.20;96.20;;;;;;5070193;28;37391;-51
2022/03/26 03:25:55;;;;;;;122.15;67.78;;;6.30;96.50;;;;;;5072209;27;37525;-52
2022/03/26 03:28:22;;;;;;;124.18;65.35;;;6.20;96.60;;;;;;5070814;28;36951;-52
2022/03/26 03:30:51;;;;;;;113.10;62.78;;;6.30;96.80;;;;;;5071505;27;39977;-51
2022/03/26 03:33:19;;;;;;;113.68;63.17;;;6.30;96.70;;;;;;5071304;27;37500;-53
2022/03/26 03:35:46;;;;;;;104.72;59.05;;;6.30;96.70;;;;;;5071989;28;37720;-52
2022/03/26 03:38:16;;;;;;;106.95;61.75;;;6.30;96.80;;;;;;5070888;28;35509;-52
2022/03/26 03:40:43;;;;;;;118.13;61.70;;;6.20;96.80;;;;;;5071518;27;39082;-48
2022/03/26 03:43:10;;;;;;;99.68;55.70;;;6.30;96.90;;;;;;5071292;27;36376;-51
2022/03/26 03:45:37;;;;;;;74.32;44.42;;;6.20;96.70;;;;;;5071308;27;38558;-51
2022/03/26 03:48:07;;;;;;;74.85;44.22;;;6.10;96.40;;;;;;5071444;27;36652;-54
2022/03/26 03:50:34;;;;;;;80.03;46.47;;;6.10;96.50;;;;;;5071516;27;37290;-53
2022/03/26 03:53:01;;;;;;;83.75;47.60;;;6.00;96.60;;;;;;5071528;28;36381;-53
2022/03/26 03:55:29;;;;;;;75.72;45.45;;;6.00;96.70;;;;;;5070793;27;37241;-54
2022/03/26 03:57:56;;;;;;;80.68;48.00;;;5.90;96.70;;;;;;5068411;28;36729;-51
2022/03/26 04:00:24;;;;;;;87.75;52.20;;;5.90;96.70;;;;;;5068495;27;39434;-50
2022/03/26 04:02:53;;;;;;;95.15;52.60;;;5.80;96.40;;;;;;5070106;27;37748;-52
2022/03/26 04:05:24;;;;;;;92.30;51.95;;;5.70;96.10;;;;;;5070904;28;37211;-51
2022/03/26 04:07:52;;;;;;;89.30;50.08;;;5.70;96.30;;;;;;5070322;27;36086;-51
2022/03/26 04:10:19;;;;;;;80.70;49.08;;;5.60;96.30;;;;;;5070091;28;38934;-52
2022/03/26 04:12:46;;;;;;;80.95;47.17;;;5.50;96.20;;;;;;5069997;28;37416;-51
2022/03/26 04:15:15;;;;;;;401.92;66.38;;;5.50;96.10;;;;;;5069430;27;38487;-50
2022/03/26 04:17:43;;;;;;;95.38;55.63;;;5.20;96.20;;;;;;5069956;27;36731;-52
2022/03/26 04:20:10;;;;;;;96.22;55.72;;;5.10;96.60;;;;;;5069686;28;37527;-51
2022/03/26 04:22:40;;;;;;;86.53;53.05;;;5.10;97.00;;;;;;5068914;27;36409;-51
2022/03/26 04:25:09;;;;;;;88.32;52.13;;;5.10;97.00;;;;;;5069291;28;37670;-51
2022/03/26 04:27:37;;;;;;;106.65;57.50;;;5.20;96.70;;;;;;5068655;28;38305;-51
2022/03/26 04:30:05;;;;;;;104.95;57.08;;;5.20;96.70;;;;;;5069346;28;38361;-52
2022/03/26 04:32:32;;;;;;;98.18;56.63;;;5.20;96.80;;;;;;5071350;28;37873;-51
2022/03/26 04:35:00;;;;;;;103.68;56.80;;;5.20;97.00;;;;;;5070925;28;38060;-52
2022/03/26 04:37:27;;;;;;;97.45;55.92;;;5.30;97.10;;;;;;5070158;27;36430;-51
2022/03/26 04:39:56;;;;;;;96.85;54.75;;;5.30;97.10;;;;;;5070904;27;36208;-52
2022/03/26 04:42:23;;;;;;;97.20;56.08;;;5.40;97.10;;;;;;5070404;28;36500;-51
2022/03/26 04:44:51;;;;;;;93.63;56.05;;;5.40;97.10;;;;;;5069847;27;38661;-49
2022/03/26 04:47:18;;;;;;;94.55;52.97;;;5.50;97.20;;;;;;5070307;27;37457;-49
2022/03/26 04:49:46;;;;;;;91.80;52.47;;;5.50;97.20;;;;;;5070817;27;38069;-52
2022/03/26 04:52:13;;;;;;;87.97;50.15;;;5.50;96.90;;;;;;5070490;28;38770;-52
2022/03/26 04:54:42;;;;;;;94.32;53.90;;;5.50;96.70;;;;;;5069405;27;37074;-50
2022/03/26 04:57:12;;;;;;;78.93;47.80;;;5.50;96.70;;;;;;5069468;27;37405;-52
2022/03/26 04:59:40;;;;;;;76.00;44.15;;;5.50;96.60;;;;;;5067717;27;39118;-52
2022/03/26 05:02:07;;;;;;;62.92;38.55;;;5.50;96.30;;;;;;5068763;27;38317;-50
2022/03/26 05:04:34;;;;;;;81.00;48.33;;;5.40;96.10;;;;;;5069035;27;37372;-49
2022/03/26 05:07:45;;;;;;;83.95;49.10;;;5.30;96.10;;;;;;5069772;28;36666;-47
2022/03/26 05:09:49;;;;;;;83.78;47.95;;;5.30;96.20;;;;;;5069741;28;39423;-51
2022/03/26 05:12:18;;;;;;;80.13;50.28;;;5.20;96.30;;;;;;5069245;27;38633;-49
2022/03/26 05:14:45;;;;;;;78.95;48.50;;;5.10;96.50;;;;;;5068721;28;37280;-51
2022/03/26 05:17:13;;;;;;;86.35;48.28;;;5.00;96.80;;;;;;5069389;27;36632;-48
2022/03/26 05:19:41;;;;;;;89.07;49.63;;;5.00;97.10;;;;;;5070725;27;37320;-51
2022/03/26 05:22:08;;;;;;;91.93;51.78;;;5.00;97.20;;;;;;5069342;27;38961;-50
2022/03/26 05:24:35;;;;;;;73.00;43.45;;;5.00;97.20;;;;;;5069168;27;37400;-51
2022/03/26 05:27:03;;;;;;;69.13;40.50;;;5.00;97.20;;;;;;5068326;28;35392;-52
2022/03/26 05:29:32;;;;;;;65.07;40.13;;;5.00;97.00;;;;;;5069773;27;37284;-52
2022/03/26 05:31:59;;;;;;;119.55;34.55;;;4.90;97.00;;;;;;5068959;28;36571;-52
2022/03/26 05:34:27;;;;;;;62.92;30.35;;;5.00;97.10;;;;;;5068860;28;37574;-49
2022/03/26 05:36:54;;;;;;;40.78;29.33;;;4.90;97.20;;;;;;5069737;28;36679;-52
2022/03/26 05:39:21;;;;;;;60.15;36.03;;;4.90;97.30;;;;;;5069109;27;39231;-49
2022/03/26 05:41:49;;;;;;;62.67;38.30;;;5.00;97.20;;;;;;5068019;27;37540;-51
2022/03/26 05:44:16;;;;;;;73.00;40.25;;;5.10;97.30;;;;;;5068847;28;38532;-50
2022/03/26 05:46:45;;;;;;;69.93;41.67;;;5.10;97.00;;;;;;5069082;27;37494;-48
2022/03/26 05:49:12;;;;;;;82.53;45.92;;;5.30;96.90;;;;;;5069041;28;38344;-49
2022/03/26 05:51:42;;;;;;;78.50;46.70;;;5.40;96.60;;;;;;5067428;27;38538;-49
2022/03/26 05:54:09;;;;;;;85.53;49.67;;;5.60;96.30;;;;;;5068356;28;37397;-51
2022/03/26 05:56:37;;;;;;;89.43;51.55;;;5.70;96.20;;;;;;5068516;27;36560;-49
2022/03/26 05:59:04;;;;;;;89.90;51.38;;;5.80;96.30;;;;;;5068255;27;38831;-53
2022/03/26 06:01:32;;;;;;;80.40;47.25;;;6.00;96.50;;;;;;5068831;28;40838;-52
2022/03/26 06:04:00;;;;;;;72.53;42.28;;;6.10;96.20;;;;;;5069593;27;38629;-50
2022/03/26 06:06:28;;;;;;;72.35;43.08;;;6.30;96.30;;;;;;5068860;27;37231;-52
2022/03/26 06:08:55;;;;;;;81.57;48.72;;;6.40;96.10;;;;;;5068463;28;37380;-50
2022/03/26 06:11:23;;;;;;;88.82;51.05;;;6.60;95.90;;;;;;5067406;28;37497;-52
2022/03/26 06:13:51;;;;;;;95.80;56.53;;;6.70;96.00;;;;;;5069284;27;39918;-49
2022/03/26 06:16:18;;;;;;;100.40;54.83;;;6.80;96.30;;;;;;5068369;28;36759;-52
2022/03/26 06:18:45;;;;;;;96.90;54.10;;;6.80;96.50;;;;;;5068554;28;37479;-52
2022/03/26 06:21:14;;;;;;;98.00;58.10;;;6.90;96.50;;;;;;5068518;27;38374;-52
2022/03/26 06:23:41;;;;;;;103.40;58.53;;;7.10;96.90;;;;;;5067688;27;39360;-52
2022/03/26 06:26:09;;;;;;;107.35;60.35;;;7.20;97.10;;;;;;5069417;27;35415;-58
2022/03/26 06:28:36;;;;;;;110.90;62.88;;;7.30;97.40;;;;;;5067445;28;40466;-59
2022/03/26 06:31:04;;;;;;;115.97;63.70;;;7.40;97.60;;;;;;5068157;27;37750;-58
2022/03/26 06:33:31;;;;;;;109.40;63.30;;;7.50;97.70;;;;;;5068787;27;36182;-58
2022/03/26 06:35:58;;;;;;;114.70;62.88;;;7.70;97.60;;;;;;5068961;27;36934;-58
2022/03/26 06:38:31;;;;;;;116.47;64.22;;;7.80;97.60;;;;;;5068390;28;38341;-58
2022/03/26 06:40:59;;;;;;;130.20;71.70;;;7.90;97.50;;;;;;5068591;28;38271;-56
2022/03/26 06:43:26;;;;;;;126.97;75.10;;;8.10;97.40;;;;;;5067641;27;37152;-55
2022/03/26 06:45:53;;;;;;;140.20;79.70;;;8.30;97.70;;;;;;5068137;27;36524;-57
2022/03/26 06:48:20;;;;;;;126.70;75.63;;;8.50;97.50;;;;;;5068243;27;37542;-56
2022/03/26 06:50:48;;;;;;;131.40;76.63;;;8.70;97.40;;;;;;5068611;27;38579;-56
2022/03/26 06:53:16;;;;;;;119.82;69.07;;;8.70;97.40;;;;;;5067353;27;37620;-56
2022/03/26 06:55:44;;;;;;;114.78;66.90;;;8.70;97.50;;;;;;5067248;27;36596;-56
2022/03/26 06:58:12;;;;;;;110.10;66.25;;;8.80;97.40;;;;;;5067163;27;38467;-57
2022/03/26 07:00:39;;;;;;;111.95;67.10;;;8.90;97.30;;;;;;5068162;28;37590;-56
2022/03/26 07:03:07;;;;;;;115.95;65.13;;;8.90;97.30;;;;;;5068300;28;37089;-56
2022/03/26 07:05:34;;;;;;;107.90;61.72;;;9.00;97.50;;;;;;5067665;27;36543;-56
2022/03/26 07:08:03;;;;;;;108.55;61.10;;;9.00;97.60;;;;;;5067498;27;37462;-56
2022/03/26 07:10:30;;;;;;;107.78;63.08;;;9.10;97.90;;;;;;5067722;28;38424;-56
2022/03/26 07:12:59;;;;;;;102.35;62.13;;;9.20;98.00;;;;;;5068540;28;36124;-57
2022/03/26 07:15:26;;;;;;;103.88;61.75;;;9.40;98.00;;;;;;5068210;27;35642;-56
2022/03/26 07:17:53;;;;;;;99.90;58.97;;;9.70;97.80;;;;;;5067651;27;39451;-56
2022/03/26 07:20:21;;;;;;;99.50;57.85;;;9.90;97.40;;;;;;5067263;28;37535;-56
2022/03/26 07:22:48;;;;;;;98.40;59.47;;;10.20;97.20;;;;;;5067924;28;38430;-56
2022/03/26 07:25:15;;;;;;;98.90;59.85;;;10.30;96.70;;;;;;5067952;27;36746;-56
2022/03/26 07:27:43;;;;;;;95.38;58.95;;;10.60;96.70;;;;;;5067421;27;36039;-56
2022/03/26 07:30:12;;;;;;;100.35;58.35;;;10.80;96.50;;;;;;5067422;27;38742;-56
2022/03/26 07:32:40;;;;;;;97.75;59.92;;;11.00;96.00;;;;;;5066288;28;37368;-57
2022/03/26 07:35:07;;;;;;;93.38;57.90;;;11.30;95.50;;;;;;5068068;27;36554;-56
2022/03/26 07:37:35;;;;;;;95.97;57.80;;;11.40;95.10;;;;;;5066648;28;39495;-56
2022/03/26 07:40:04;;;;;;;93.28;57.65;;;11.60;94.70;;;;;;5066349;27;39208;-56
2022/03/26 07:42:31;;;;;;;92.88;56.85;;;11.80;94.40;;;;;;5065551;28;38291;-56
2022/03/26 07:44:59;;;;;;;90.32;56.78;;;11.90;94.40;;;;;;5066175;27;37675;-56
2022/03/26 07:47:27;;;;;;;94.15;57.95;;;12.00;94.40;;;;;;5065502;28;38773;-56
2022/03/26 07:49:55;;;;;;;90.18;55.40;;;12.10;94.50;;;;;;5065643;27;37726;-56
2022/03/26 07:52:23;;;;;;;92.45;56.95;;;12.20;94.50;;;;;;5066777;28;37426;-56
2022/03/26 07:54:50;;;;;;;82.65;55.08;;;12.20;94.60;;;;;;5068133;28;35164;-56
2022/03/26 07:57:17;;;;;;;88.22;54.60;;;12.30;94.70;;;;;;5066433;27;37691;-57
2022/03/26 07:59:44;;;;;;;88.10;54.38;;;12.40;94.80;;;;;;5066792;27;37791;-56
2022/03/26 08:02:12;;;;;;;83.75;53.13;;;12.50;94.70;;;;;;5067200;27;37641;-56
2022/03/26 08:04:41;;;;;;;78.50;51.85;;;12.70;94.40;;;;;;5069754;27;36903;-56
2022/03/26 08:07:08;;;;;;;78.15;49.65;;;13.10;93.60;;;;;;5071285;27;37386;-56
2022/03/26 08:09:35;;;;;;;76.47;48.83;;;13.30;92.90;;;;;;5070381;27;36364;-56
2022/03/26 08:12:04;;;;;;;79.50;48.10;;;13.50;92.00;;;;;;5069947;27;37852;-51
2022/03/26 08:14:33;;;;;;;75.65;47.80;;;13.60;91.80;;;;;;5070325;27;36927;-51
2022/03/26 08:17:00;;;;;;;68.97;45.53;;;13.90;91.80;;;;;;5070680;27;37818;-51
2022/03/26 08:19:28;;;;;;;67.95;43.63;;;14.40;90.50;;;;;;5070057;28;38702;-50
2022/03/26 08:21:56;;;;;;;70.30;43.45;;;14.70;88.90;;;;;;5070927;28;38861;-49
2022/03/26 08:24:24;;;;;;;62.33;42.50;;;15.00;87.30;;;;;;5069712;28;36435;-51
2022/03/26 08:26:52;;;;;;;61.67;40.35;;;15.40;86.70;;;;;;5070539;27;39203;-47
2022/03/26 08:29:19;;;;;;;62.97;42.25;;;15.70;84.30;;;;;;5069817;28;37881;-50
2022/03/26 08:31:46;;;;;;;58.92;43.22;;;16.00;82.70;;;;;;5070229;28;39084;-50
2022/03/26 08:34:14;;;;;;;66.60;41.88;;;16.30;81.30;;;;;;5069340;27;37410;-50
2022/03/26 08:36:41;;;;;;;63.72;43.53;;;16.40;81.10;;;;;;5069399;28;38257;-50
2022/03/26 08:39:10;;;;;;;58.88;42.88;;;16.50;81.40;;;;;;5071017;28;39411;-50
2022/03/26 08:41:37;;;;;;;62.85;43.78;;;16.60;81.00;;;;;;5069478;28;38537;-50
2022/03/26 08:44:05;;;;;;;51.75;37.72;;;16.60;81.80;;;;;;5068974;27;36733;-50
2022/03/26 08:46:34;;;;;;;51.30;36.90;;;16.60;81.60;;;;;;5068940;27;38519;-49
2022/03/26 08:49:01;;;;;;;55.75;38.08;;;16.70;81.20;;;;;;5068395;28;39557;-50
2022/03/26 08:51:28;;;;;;;56.60;40.28;;;16.70;80.30;;;;;;5068404;28;39030;-51
2022/03/26 08:53:56;;;;;;;50.55;36.67;;;16.80;80.20;;;;;;5067582;27;36842;-49
2022/03/26 08:56:25;;;;;;;50.58;36.85;;;16.80;79.00;;;;;;5067384;28;38321;-51
2022/03/26 08:58:52;;;;;;;51.63;38.67;;;17.00;78.80;;;;;;5066370;28;36981;-51
2022/03/26 09:01:20;;;;;;;49.80;37.15;;;17.10;77.60;;;;;;5068457;28;37974;-51
2022/03/26 09:03:50;;;;;;;47.97;36.40;;;17.40;76.30;;;;;;5069167;28;37799;-49
2022/03/26 09:06:17;;;;;;;56.15;34.95;;;17.60;75.60;;;;;;5069478;28;38350;-50
2022/03/26 09:08:45;;;;;;;46.60;33.97;;;18.00;73.80;;;;;;5069427;28;37806;-48
2022/03/26 09:11:12;;;;;;;47.83;34.85;;;18.20;71.50;;;;;;5070369;28;37344;-49
2022/03/26 09:13:41;;;;;;;48.72;35.28;;;18.50;70.20;;;;;;5069757;27;36592;-51
2022/03/26 09:16:09;;;;;;;45.38;34.92;;;18.70;69.70;;;;;;5068938;27;38970;-51
2022/03/26 09:18:36;;;;;;;47.88;35.60;;;19.00;69.20;;;;;;5070340;27;36706;-48
2022/03/26 09:21:04;;;;;;;46.42;34.88;;;19.30;68.60;;;;;;5070274;28;38473;-50
2022/03/26 09:23:32;;;;;;;42.55;31.92;;;19.60;66.40;;;;;;5069090;27;36947;-50
2022/03/26 09:26:00;;;;;;;41.47;30.45;;;19.90;64.40;;;;;;5069853;28;38123;-51
2022/03/26 09:28:27;;;;;;;38.03;29.40;;;20.10;61.60;;;;;;5067974;28;37596;-50
2022/03/26 09:30:56;;;;;;;42.60;29.73;;;20.40;59.90;;;;;;5069592;27;37411;-51
2022/03/26 09:33:23;;;;;;;42.25;30.10;;;20.80;58.70;;;;;;5069421;27;38269;-48
2022/03/26 09:35:51;;;;;;;35.90;26.50;;;21.20;57.40;;;;;;5069038;27;39019;-48
2022/03/26 09:38:18;;;;;;;28.33;21.20;;;21.50;56.20;;;;;;5069611;27;35750;-51
2022/03/26 09:40:45;;;;;;;28.85;22.13;;;21.50;54.20;;;;;;5070082;27;38471;-50
2022/03/26 09:43:15;;;;;;;35.20;21.67;;;21.50;53.40;;;;;;5069425;28;37422;-51
2022/03/26 09:45:44;;;;;;;28.02;21.13;;;21.40;53.70;;;;;;5067742;28;37509;-51
2022/03/26 09:48:13;;;;;;;28.92;21.00;;;21.30;53.70;;;;;;5069099;28;37587;-50
2022/03/26 09:50:43;;;;;;;25.35;18.00;;;21.20;53.60;;;;;;5070127;27;37471;-49
2022/03/26 09:53:12;;;;;;;27.25;18.67;;;21.00;53.30;;;;;;5069234;27;38289;-50
2022/03/26 09:55:41;;;;;;;24.00;18.10;;;20.80;53.40;;;;;;5068652;27;37598;-49
2022/03/26 09:58:08;;;;;;;22.83;15.88;;;20.70;53.40;;;;;;5068619;28;38377;-51
2022/03/26 10:00:36;;;;;;;22.38;15.95;;;20.70;52.80;;;;;;5067329;28;37299;-50
2022/03/26 10:03:03;;;;;;;22.98;15.20;;;20.60;52.60;;;;;;5067859;27;37660;-51
2022/03/26 10:05:36;;;;;;;18.88;14.77;;;20.70;52.90;;;;;;5067785;27;37229;-49
2022/03/26 10:08:20;;;;;;;20.77;14.27;;;20.80;52.10;;;;;;5068243;27;38422;-51
2022/03/26 10:10:48;;;;;;;21.48;15.20;;;20.80;51.00;;;;;;5068201;27;36827;-49
2022/03/26 10:13:34;;;;;;;17.10;11.00;;;20.90;51.30;;;;;;5065213;27;36639;-50
2022/03/26 10:16:05;;;;;;;16.30;9.98;;;20.90;48.20;;;;;;5066933;28;20057;-51
2022/03/26 10:18:36;;;;;;;17.33;11.15;;;20.80;48.80;;;;;;5067083;28;36504;-51
2022/03/26 10:21:08;;;;;;;18.60;13.10;;;20.80;48.80;;;;;;5067451;28;36811;-49
2022/03/26 10:23:36;;;;;;;24.20;16.77;;;21.10;49.10;;;;;;5065009;28;37141;-50
2022/03/26 10:26:10;;;;;;;17.58;11.90;;;21.40;49.50;;;;;;5066999;27;39279;-52
2022/03/26 10:28:40;;;;;;;14.98;9.07;;;21.50;47.90;;;;;;5065421;28;38527;-52
2022/03/26 10:34:08;;;;;;;13.73;8.75;;;21.40;45.50;;;;;;5065894;28;39743;-51
2022/03/26 10:36:40;;;;;;;14.70;9.10;;;21.30;45.80;;;;;;5068627;27;38196;-50
2022/03/26 10:39:13;;;;;;;15.38;8.95;;;21.50;45.00;;;;;;5067832;27;37614;-51
2022/03/26 10:41:40;;;;;;;;;;;21.50;44.90;;;;;;5069167;27;38211;-52
2022/03/26 10:44:13;;;;;;;14.18;8.05;;;21.50;43.60;;;;;;5068126;27;37029;-52
2022/03/26 10:46:45;;;;;;;11.13;5.40;;;21.50;44.90;;;;;;5067477;28;37753;-52
2022/03/26 10:49:13;;;;;;;12.15;5.10;;;21.40;45.20;;;;;;5068477;27;36302;-51
2022/03/26 10:51:42;;;;;;;8.35;4.53;;;21.20;45.50;;;;;;5067455;27;36201;-52
2022/03/26 10:54:12;;;;;;;7.78;4.70;;;21.20;46.00;;;;;;5067752;28;36737;-53
2022/03/26 10:56:40;;;;;;;8.10;4.80;;;21.10;46.10;;;;;;5069034;27;37329;-51
2022/03/26 10:59:08;;;;;;;8.32;4.65;;;21.10;46.20;;;;;;5067761;27;37776;-49
2022/03/26 11:01:36;;;;;;;13.18;5.60;;;21.00;46.40;;;;;;5068125;28;37398;-52
2022/03/26 11:04:04;;;;;;;10.93;5.30;;;21.00;46.80;;;;;;5068701;27;35262;-52
2022/03/26 11:06:43;;;;;;;10.88;5.82;;;20.80;46.60;;;;;;5066772;28;36210;-53
2022/03/26 11:09:12;;;;;;;17.02;5.75;;;20.60;46.10;;;;;;5067770;28;37650;-54
2022/03/26 11:11:40;;;;;;;10.68;5.03;;;20.30;46.50;;;;;;5068239;27;37360;-51
2022/03/26 11:14:11;;;;;;;10.82;4.65;;;20.10;47.20;;;;;;5068885;28;38423;-51
2022/03/26 11:16:54;;;;;;;10.95;4.82;;;20.10;47.80;;;;;;5068250;28;36369;-50
2022/03/26 11:19:34;;;;;;;10.35;5.80;;;20.10;48.80;;;;;;5068126;27;37571;-51
2022/03/26 11:22:35;;;;;;;11.60;5.78;;;19.90;48.70;;;;;;5067432;27;37432;-49
2022/03/26 11:25:32;;;;;;;9.95;4.97;;;19.50;50.00;;;;;;5029171;28;36563;-51
2022/03/26 11:28:38;;;;;;;14.25;5.10;;;19.10;50.40;;;;;;5066164;28;38736;-51
2022/03/26 11:31:12;;;;;;;10.77;6.20;;;18.90;52.60;;;;;;5061897;27;39291;-50
2022/03/26 11:33:40;;;;;;;7.18;4.05;;;18.70;53.40;;;;;;5066993;28;37557;-52
2022/03/26 11:36:10;;;;;;;8.73;3.95;;;18.50;53.00;;;;;;5067049;27;36566;-52
2022/03/26 11:38:38;;;;;;;9.57;3.47;;;18.30;54.40;;;;;;5066568;27;38058;-51
2022/03/26 11:41:08;;;;;;;9.18;3.25;;;18.20;54.60;;;;;;5070249;28;38565;-50
2022/03/26 11:43:56;;;;;;;7.53;3.90;;;18.20;55.00;;;;;;5071416;28;37011;-52
2022/03/26 11:52:20;;;;;;;;;;;18.00;55.20;;;;;;5070100;28;38726;-52
2022/03/26 11:54:48;;;;;;;6.57;3.20;;;17.90;56.20;;;;;;5071374;27;37393;-52
2022/03/26 11:57:19;;;;;;;7.88;3.78;;;17.90;56.10;;;;;;5069274;28;36190;-52
2022/03/26 11:59:48;;;;;;;7.53;4.00;;;17.80;56.20;;;;;;5070599;27;38455;-52
2022/03/26 12:02:23;;;;;;;8.68;4.57;;;17.80;56.30;;;;;;5066328;28;38798;-52
2022/03/26 12:04:54;;;;;;;12.75;4.47;;;17.80;57.00;;;;;;5069852;27;37055;-51
2022/03/26 12:07:23;;;;;;;11.23;5.10;;;17.80;58.60;;;;;;5069032;27;36185;-51
2022/03/26 12:10:10;;;;;;;8.15;3.95;;;17.90;58.60;;;;;;5069891;27;37460;-50
2022/03/26 12:12:50;;;;;;;11.38;5.55;;;17.80;56.30;;;;;;5068900;28;39654;-52
2022/03/26 12:15:32;;;;;;;10.10;4.82;;;17.70;57.10;;;;;;5070519;28;37200;-52
2022/03/26 12:18:10;;;;;;;11.35;5.72;;;17.50;58.10;;;;;;5068543;28;36102;-51
2022/03/26 12:20:39;;;;;;;14.00;6.03;;;17.20;60.80;;;;;;5070681;28;36453;-52
2022/03/26 12:23:10;;;;;;;9.20;5.15;;;17.20;63.20;;;;;;5067445;28;38430;-51
2022/03/26 12:25:45;;;;;;;9.93;5.22;;;17.30;64.40;;;;;;5068541;27;35994;-53
2022/03/26 12:28:16;;;;;;;12.30;5.63;;;17.30;63.60;;;;;;5067036;28;36719;-53
2022/03/26 12:30:52;;;;;;;9.75;5.03;;;17.20;64.40;;;;;;5067759;27;36259;-51
2022/03/26 12:33:20;;;;;;;7.82;3.95;;;17.30;66.50;;;;;;5065817;27;39053;-49
2022/03/26 12:35:49;;;;;;;8.13;3.83;;;17.20;65.00;;;;;;5067482;27;38783;-52
2022/03/26 12:38:18;;;;;;;8.82;4.22;;;17.10;64.50;;;;;;5068309;27;36900;-51
2022/03/26 12:40:53;;;;;;;11.65;4.65;;;17.00;65.80;;;;;;5069358;27;38287;-53
2022/03/26 12:43:23;;;;;;;10.15;5.55;;;16.80;66.40;;;;;;5069006;28;37635;-51
2022/03/26 12:45:51;;;;;;;9.18;4.18;;;16.70;67.30;;;;;;5067831;28;38422;-49
2022/03/26 12:48:22;;;;;;;10.15;5.47;;;16.60;67.00;;;;;;5068608;28;37273;-52
2022/03/26 12:50:51;;;;;;;8.95;4.35;;;16.50;68.80;;;;;;5065982;28;36352;-52